N1SD KSAN-
Flight info
| Callsign | N1SD |
|---|---|
| Flight time | N/A |
| Altitude | VFR/005 |
| Route | VFR S |
| Aircraft | EC45/L-VGD/C |
Departure
| Time | 2026-04-22 04:38 |
|---|---|
| Airport | San Diego International Airport (KSAN) |
Arrival
| Time | N/A |
|---|---|
| Airport | - |
| Time | Latitude | Longitude | Altitude | Speed | Heading |
|---|---|---|---|---|---|
| 2026-04-22 04:34 | 32.73429 | -117.17896 | 17 ft | 0 kts | 279° |
| 2026-04-22 04:37 | 32.73438 | -117.17908 | 26 ft | 3 kts | 212° |
| 2026-04-22 04:37 | 32.73441 | -117.17910 | 52 ft | 8 kts | 168° |
| 2026-04-22 04:37 | 32.73450 | -117.18135 | 161 ft | 72 kts | 279° |
| 2026-04-22 04:37 | 32.73601 | -117.18851 | 329 ft | 112 kts | 230° |
| 2026-04-22 04:38 | 32.72937 | -117.19020 | 392 ft | 108 kts | 152° |
| 2026-04-22 04:38 | 32.72248 | -117.18756 | 676 ft | 108 kts | 120° |
| 2026-04-22 04:38 | 32.71896 | -117.17925 | 616 ft | 120 kts | 92° |
| 2026-04-22 04:38 | 32.71557 | -117.17136 | 743 ft | 96 kts | 92° |
| 2026-04-22 04:39 | 32.71285 | -117.16573 | 660 ft | 69 kts | 48° |
| 2026-04-22 04:39 | 32.71252 | -117.16154 | 515 ft | 62 kts | 33° |
| 2026-04-22 04:39 | 32.71371 | -117.15719 | 438 ft | 50 kts | 358° |
| 2026-04-22 04:39 | 32.71673 | -117.15512 | 484 ft | 46 kts | 313° |
| 2026-04-22 04:40 | 32.71796 | -117.15719 | 568 ft | 30 kts | 263° |
| 2026-04-22 04:40 | 32.71811 | -117.15787 | 522 ft | 0 kts | 257° |
| 2026-04-22 04:43 | 32.71770 | -117.15816 | 616 ft | 26 kts | 296° |
| 2026-04-22 04:44 | 32.71757 | -117.16239 | 663 ft | 88 kts | 291° |
| 2026-04-22 04:44 | 32.72008 | -117.17098 | 596 ft | 119 kts | 285° |
| 2026-04-22 04:44 | 32.72266 | -117.18105 | 509 ft | 136 kts | 288° |
| 2026-04-22 04:44 | 32.72694 | -117.19049 | 536 ft | 121 kts | 331° |
| 2026-04-22 04:45 | 32.73400 | -117.18993 | 469 ft | 102 kts | 58° |
| 2026-04-22 04:45 | 32.73538 | -117.18234 | 386 ft | 85 kts | 97° |
| 2026-04-22 04:45 | 32.73488 | -117.17753 | 345 ft | 31 kts | 156° |
| 2026-04-22 04:45 | 32.73406 | -117.17600 | 201 ft | 16 kts | 212° |
| 2026-04-22 04:46 | 32.73369 | -117.17620 | 160 ft | 7 kts | 234° |
| 2026-04-22 04:46 | 32.73334 | -117.17694 | 100 ft | 13 kts | 246° |
| 2026-04-22 04:46 | 32.73320 | -117.17741 | 33 ft | 2 kts | 281° |
| 2026-04-22 04:46 | 32.73321 | -117.17737 | 22 ft | 0 kts | 284° |